sensor_id;sensor_type;location;lat;lon;timestamp;P1;durP1;ratioP1;P2;durP2;ratioP2
61905;SDS011;47863;55.766;37.672;2023-07-09T00:02:16;8.23;;;4.22;;
61905;SDS011;47863;55.766;37.672;2023-07-09T00:04:43;7.82;;;3.60;;
61905;SDS011;47863;55.766;37.672;2023-07-09T00:07:28;13.82;;;4.20;;
61905;SDS011;47863;55.766;37.672;2023-07-09T00:09:58;6.22;;;3.55;;
61905;SDS011;47863;55.766;37.672;2023-07-09T00:12:24;7.07;;;3.97;;
61905;SDS011;47863;55.766;37.672;2023-07-09T00:14:50;7.13;;;4.00;;
61905;SDS011;47863;55.766;37.672;2023-07-09T00:19:48;9.65;;;3.83;;
61905;SDS011;47863;55.766;37.672;2023-07-09T00:22:16;7.05;;;3.97;;
61905;SDS011;47863;55.766;37.672;2023-07-09T00:24:47;6.60;;;3.75;;
61905;SDS011;47863;55.766;37.672;2023-07-09T00:27:19;9.18;;;4.03;;
61905;SDS011;47863;55.766;37.672;2023-07-09T00:29:47;6.38;;;3.70;;
61905;SDS011;47863;55.766;37.672;2023-07-09T00:32:16;6.63;;;3.67;;
61905;SDS011;47863;55.766;37.672;2023-07-09T00:34:46;6.38;;;3.58;;
61905;SDS011;47863;55.766;37.672;2023-07-09T00:37:16;7.43;;;3.97;;
61905;SDS011;47863;55.766;37.672;2023-07-09T00:39:45;7.35;;;3.60;;
61905;SDS011;47863;55.766;37.672;2023-07-09T00:42:12;8.90;;;3.85;;
61905;SDS011;47863;55.766;37.672;2023-07-09T00:44:45;8.82;;;3.97;;
61905;SDS011;47863;55.766;37.672;2023-07-09T00:47:24;6.57;;;3.83;;
61905;SDS011;47863;55.766;37.672;2023-07-09T00:50:00;9.10;;;3.65;;
61905;SDS011;47863;55.766;37.672;2023-07-09T00:55:04;6.97;;;3.55;;
61905;SDS011;47863;55.766;37.672;2023-07-09T00:57:35;7.00;;;3.63;;
61905;SDS011;47863;55.766;37.672;2023-07-09T01:00:05;6.35;;;4.10;;
61905;SDS011;47863;55.766;37.672;2023-07-09T01:02:35;7.03;;;3.45;;
61905;SDS011;47863;55.766;37.672;2023-07-09T01:05:02;8.70;;;4.15;;
61905;SDS011;47863;55.766;37.672;2023-07-09T01:07:31;6.78;;;3.83;;
61905;SDS011;47863;55.766;37.672;2023-07-09T01:09:56;6.82;;;3.35;;
61905;SDS011;47863;55.766;37.672;2023-07-09T01:12:22;7.53;;;4.03;;
61905;SDS011;47863;55.766;37.672;2023-07-09T01:14:49;7.68;;;3.85;;
61905;SDS011;47863;55.766;37.672;2023-07-09T01:17:19;8.00;;;3.75;;
61905;SDS011;47863;55.766;37.672;2023-07-09T01:19:48;8.07;;;4.28;;
61905;SDS011;47863;55.766;37.672;2023-07-09T01:22:16;6.38;;;3.80;;
61905;SDS011;47863;55.766;37.672;2023-07-09T01:27:11;9.02;;;3.65;;
61905;SDS011;47863;55.766;37.672;2023-07-09T01:29:37;6.45;;;3.42;;
61905;SDS011;47863;55.766;37.672;2023-07-09T01:32:03;6.72;;;3.75;;
61905;SDS011;47863;55.766;37.672;2023-07-09T01:34:32;6.45;;;3.90;;
61905;SDS011;47863;55.766;37.672;2023-07-09T01:36:59;6.57;;;3.58;;
61905;SDS011;47863;55.766;37.672;2023-07-09T01:39:27;7.55;;;3.65;;
61905;SDS011;47863;55.766;37.672;2023-07-09T01:41:54;7.53;;;3.55;;
61905;SDS011;47863;55.766;37.672;2023-07-09T01:44:20;6.38;;;3.53;;
61905;SDS011;47863;55.766;37.672;2023-07-09T01:46:46;6.25;;;3.60;;
61905;SDS011;47863;55.766;37.672;2023-07-09T01:49:11;7.03;;;4.05;;
61905;SDS011;47863;55.766;37.672;2023-07-09T01:51:37;5.32;;;3.30;;
61905;SDS011;47863;55.766;37.672;2023-07-09T01:54:04;7.68;;;3.58;;
61905;SDS011;47863;55.766;37.672;2023-07-09T01:56:30;5.85;;;3.40;;
61905;SDS011;47863;55.766;37.672;2023-07-09T01:58:55;6.15;;;3.35;;
61905;SDS011;47863;55.766;37.672;2023-07-09T02:01:27;7.20;;;3.90;;
61905;SDS011;47863;55.766;37.672;2023-07-09T02:03:54;6.40;;;3.80;;
61905;SDS011;47863;55.766;37.672;2023-07-09T02:06:20;6.32;;;3.58;;
61905;SDS011;47863;55.766;37.672;2023-07-09T02:08:45;6.38;;;3.40;;
61905;SDS011;47863;55.766;37.672;2023-07-09T02:11:11;7.60;;;4.07;;
61905;SDS011;47863;55.766;37.672;2023-07-09T02:13:37;9.23;;;3.75;;
61905;SDS011;47863;55.766;37.672;2023-07-09T02:16:02;5.72;;;3.38;;
61905;SDS011;47863;55.766;37.672;2023-07-09T02:18:29;6.88;;;4.03;;
61905;SDS011;47863;55.766;37.672;2023-07-09T02:20:54;8.07;;;4.10;;
61905;SDS011;47863;55.766;37.672;2023-07-09T02:23:20;7.38;;;3.47;;
61905;SDS011;47863;55.766;37.672;2023-07-09T02:28:16;5.60;;;3.17;;
61905;SDS011;47863;55.766;37.672;2023-07-09T02:30:41;6.97;;;3.53;;
61905;SDS011;47863;55.766;37.672;2023-07-09T02:33:07;5.93;;;3.60;;
61905;SDS011;47863;55.766;37.672;2023-07-09T02:35:32;5.95;;;3.50;;
61905;SDS011;47863;55.766;37.672;2023-07-09T02:37:59;6.93;;;3.72;;
61905;SDS011;47863;55.766;37.672;2023-07-09T02:40:25;7.18;;;3.90;;
61905;SDS011;47863;55.766;37.672;2023-07-09T02:42:50;8.00;;;3.60;;
61905;SDS011;47863;55.766;37.672;2023-07-09T02:45:16;6.50;;;3.42;;
61905;SDS011;47863;55.766;37.672;2023-07-09T02:47:41;6.15;;;3.28;;
61905;SDS011;47863;55.766;37.672;2023-07-09T02:50:07;6.55;;;4.32;;
61905;SDS011;47863;55.766;37.672;2023-07-09T02:52:33;7.50;;;3.55;;
61905;SDS011;47863;55.766;37.672;2023-07-09T02:54:58;9.15;;;3.92;;
61905;SDS011;47863;55.766;37.672;2023-07-09T02:57:24;6.25;;;3.88;;
61905;SDS011;47863;55.766;37.672;2023-07-09T02:59:49;8.80;;;3.53;;
61905;SDS011;47863;55.766;37.672;2023-07-09T03:02:15;7.05;;;3.58;;
61905;SDS011;47863;55.766;37.672;2023-07-09T03:04:41;7.47;;;3.78;;
61905;SDS011;47863;55.766;37.672;2023-07-09T03:07:06;7.13;;;4.18;;
61905;SDS011;47863;55.766;37.672;2023-07-09T03:09:32;7.53;;;4.00;;
61905;SDS011;47863;55.766;37.672;2023-07-09T03:11:58;5.38;;;3.30;;
61905;SDS011;47863;55.766;37.672;2023-07-09T03:14:23;7.90;;;3.70;;
61905;SDS011;47863;55.766;37.672;2023-07-09T03:16:49;6.15;;;4.00;;
61905;SDS011;47863;55.766;37.672;2023-07-09T03:19:15;5.78;;;3.83;;
61905;SDS011;47863;55.766;37.672;2023-07-09T03:21:41;7.88;;;4.50;;
61905;SDS011;47863;55.766;37.672;2023-07-09T03:24:07;6.80;;;3.80;;
61905;SDS011;47863;55.766;37.672;2023-07-09T03:26:34;7.07;;;4.10;;
61905;SDS011;47863;55.766;37.672;2023-07-09T03:28:59;6.85;;;4.07;;
61905;SDS011;47863;55.766;37.672;2023-07-09T03:34:41;8.02;;;3.95;;
61905;SDS011;47863;55.766;37.672;2023-07-09T03:37:06;5.60;;;3.75;;
61905;SDS011;47863;55.766;37.672;2023-07-09T03:39:32;7.00;;;4.25;;
61905;SDS011;47863;55.766;37.672;2023-07-09T03:41:57;5.75;;;4.03;;
61905;SDS011;47863;55.766;37.672;2023-07-09T03:44:24;8.15;;;4.03;;
61905;SDS011;47863;55.766;37.672;2023-07-09T03:46:50;5.30;;;3.80;;
61905;SDS011;47863;55.766;37.672;2023-07-09T03:49:16;9.20;;;4.07;;
61905;SDS011;47863;55.766;37.672;2023-07-09T03:51:42;7.82;;;3.78;;
61905;SDS011;47863;55.766;37.672;2023-07-09T03:54:07;6.03;;;3.83;;
61905;SDS011;47863;55.766;37.672;2023-07-09T03:56:33;7.28;;;3.78;;
61905;SDS011;47863;55.766;37.672;2023-07-09T03:58:58;7.22;;;3.63;;
61905;SDS011;47863;55.766;37.672;2023-07-09T04:01:24;6.30;;;3.70;;
61905;SDS011;47863;55.766;37.672;2023-07-09T04:03:50;5.93;;;3.83;;
61905;SDS011;47863;55.766;37.672;2023-07-09T04:06:15;6.22;;;3.83;;
61905;SDS011;47863;55.766;37.672;2023-07-09T04:08:41;6.50;;;3.95;;
61905;SDS011;47863;55.766;37.672;2023-07-09T04:11:06;5.95;;;3.38;;
61905;SDS011;47863;55.766;37.672;2023-07-09T04:13:32;5.15;;;3.38;;
61905;SDS011;47863;55.766;37.672;2023-07-09T04:15:57;5.68;;;3.50;;
61905;SDS011;47863;55.766;37.672;2023-07-09T04:18:23;5.72;;;3.22;;
61905;SDS011;47863;55.766;37.672;2023-07-09T04:20:49;5.60;;;3.22;;
61905;SDS011;47863;55.766;37.672;2023-07-09T04:23:16;5.63;;;3.28;;
61905;SDS011;47863;55.766;37.672;2023-07-09T04:25:42;6.88;;;3.60;;
61905;SDS011;47863;55.766;37.672;2023-07-09T04:28:08;5.18;;;3.47;;
61905;SDS011;47863;55.766;37.672;2023-07-09T04:30:34;5.28;;;3.10;;
61905;SDS011;47863;55.766;37.672;2023-07-09T04:32:59;6.10;;;3.25;;
61905;SDS011;47863;55.766;37.672;2023-07-09T04:35:25;5.30;;;3.35;;
61905;SDS011;47863;55.766;37.672;2023-07-09T04:37:50;5.03;;;3.20;;
61905;SDS011;47863;55.766;37.672;2023-07-09T04:40:17;7.03;;;3.10;;
61905;SDS011;47863;55.766;37.672;2023-07-09T04:42:43;4.40;;;2.95;;
61905;SDS011;47863;55.766;37.672;2023-07-09T04:45:09;4.55;;;2.92;;
61905;SDS011;47863;55.766;37.672;2023-07-09T04:47:36;5.55;;;3.20;;
61905;SDS011;47863;55.766;37.672;2023-07-09T04:50:04;4.50;;;2.80;;
61905;SDS011;47863;55.766;37.672;2023-07-09T04:52:31;4.90;;;2.85;;
61905;SDS011;47863;55.766;37.672;2023-07-09T04:54:56;5.93;;;2.78;;
61905;SDS011;47863;55.766;37.672;2023-07-09T04:57:22;4.00;;;2.60;;
61905;SDS011;47863;55.766;37.672;2023-07-09T04:59:48;4.65;;;2.45;;
61905;SDS011;47863;55.766;37.672;2023-07-09T05:02:14;3.95;;;2.38;;
61905;SDS011;47863;55.766;37.672;2023-07-09T05:04:40;4.32;;;2.60;;
61905;SDS011;47863;55.766;37.672;2023-07-09T05:07:05;4.90;;;2.80;;
61905;SDS011;47863;55.766;37.672;2023-07-09T05:09:32;5.90;;;2.80;;
61905;SDS011;47863;55.766;37.672;2023-07-09T05:11:59;4.93;;;2.50;;
61905;SDS011;47863;55.766;37.672;2023-07-09T05:14:26;4.63;;;2.42;;
61905;SDS011;47863;55.766;37.672;2023-07-09T05:16:53;3.47;;;2.60;;
61905;SDS011;47863;55.766;37.672;2023-07-09T05:19:18;3.90;;;2.40;;
61905;SDS011;47863;55.766;37.672;2023-07-09T05:21:44;4.10;;;2.60;;
61905;SDS011;47863;55.766;37.672;2023-07-09T05:24:10;4.13;;;2.60;;
61905;SDS011;47863;55.766;37.672;2023-07-09T05:26:35;3.63;;;2.33;;
61905;SDS011;47863;55.766;37.672;2023-07-09T05:29:02;3.55;;;2.53;;
61905;SDS011;47863;55.766;37.672;2023-07-09T05:31:29;5.70;;;2.67;;
61905;SDS011;47863;55.766;37.672;2023-07-09T05:33:55;4.90;;;2.38;;
61905;SDS011;47863;55.766;37.672;2023-07-09T05:36:21;4.47;;;2.50;;
61905;SDS011;47863;55.766;37.672;2023-07-09T05:38:46;8.23;;;5.85;;
61905;SDS011;47863;55.766;37.672;2023-07-09T05:41:12;4.28;;;2.58;;
61905;SDS011;47863;55.766;37.672;2023-07-09T05:43:42;4.03;;;2.60;;
61905;SDS011;47863;55.766;37.672;2023-07-09T05:46:09;3.70;;;2.60;;
61905;SDS011;47863;55.766;37.672;2023-07-09T05:48:35;4.05;;;2.30;;
61905;SDS011;47863;55.766;37.672;2023-07-09T05:51:01;3.85;;;2.22;;
61905;SDS011;47863;55.766;37.672;2023-07-09T05:53:26;3.75;;;2.35;;
61905;SDS011;47863;55.766;37.672;2023-07-09T05:55:52;4.20;;;2.10;;
61905;SDS011;47863;55.766;37.672;2023-07-09T05:58:19;3.70;;;2.25;;
61905;SDS011;47863;55.766;37.672;2023-07-09T06:00:45;4.43;;;2.38;;
61905;SDS011;47863;55.766;37.672;2023-07-09T06:03:10;5.95;;;2.50;;
61905;SDS011;47863;55.766;37.672;2023-07-09T06:05:36;5.32;;;2.40;;
61905;SDS011;47863;55.766;37.672;2023-07-09T06:08:03;4.68;;;2.30;;
61905;SDS011;47863;55.766;37.672;2023-07-09T06:10:29;5.28;;;2.45;;
61905;SDS011;47863;55.766;37.672;2023-07-09T06:12:55;3.40;;;2.10;;
61905;SDS011;47863;55.766;37.672;2023-07-09T06:15:24;4.20;;;2.63;;
61905;SDS011;47863;55.766;37.672;2023-07-09T06:17:50;4.00;;;2.17;;
61905;SDS011;47863;55.766;37.672;2023-07-09T06:20:16;3.97;;;2.50;;
61905;SDS011;47863;55.766;37.672;2023-07-09T06:22:42;4.00;;;2.25;;
61905;SDS011;47863;55.766;37.672;2023-07-09T06:25:07;3.47;;;2.30;;
61905;SDS011;47863;55.766;37.672;2023-07-09T06:27:33;5.43;;;1.95;;
61905;SDS011;47863;55.766;37.672;2023-07-09T06:29:59;4.03;;;2.50;;
61905;SDS011;47863;55.766;37.672;2023-07-09T06:32:24;18.80;;;10.30;;
61905;SDS011;47863;55.766;37.672;2023-07-09T06:34:51;54.97;;;19.77;;
61905;SDS011;47863;55.766;37.672;2023-07-09T06:37:16;9.50;;;5.07;;
61905;SDS011;47863;55.766;37.672;2023-07-09T06:39:42;7.07;;;4.35;;
61905;SDS011;47863;55.766;37.672;2023-07-09T06:42:08;6.22;;;3.70;;
61905;SDS011;47863;55.766;37.672;2023-07-09T06:44:33;6.32;;;3.70;;
61905;SDS011;47863;55.766;37.672;2023-07-09T06:46:59;6.43;;;3.60;;
61905;SDS011;47863;55.766;37.672;2023-07-09T06:49:25;5.25;;;3.25;;
61905;SDS011;47863;55.766;37.672;2023-07-09T06:51:50;5.38;;;3.20;;
61905;SDS011;47863;55.766;37.672;2023-07-09T06:54:17;5.50;;;2.80;;
61905;SDS011;47863;55.766;37.672;2023-07-09T06:56:42;6.95;;;3.08;;
61905;SDS011;47863;55.766;37.672;2023-07-09T06:59:08;5.15;;;3.67;;
61905;SDS011;47863;55.766;37.672;2023-07-09T07:01:35;4.80;;;2.97;;
61905;SDS011;47863;55.766;37.672;2023-07-09T07:04:00;3.92;;;2.60;;
61905;SDS011;47863;55.766;37.672;2023-07-09T07:06:26;3.97;;;2.30;;
61905;SDS011;47863;55.766;37.672;2023-07-09T07:08:51;3.72;;;2.15;;
61905;SDS011;47863;55.766;37.672;2023-07-09T07:11:17;4.28;;;2.22;;
61905;SDS011;47863;55.766;37.672;2023-07-09T07:13:43;3.67;;;2.40;;
61905;SDS011;47863;55.766;37.672;2023-07-09T07:16:10;5.20;;;2.50;;
61905;SDS011;47863;55.766;37.672;2023-07-09T07:18:37;4.20;;;2.65;;
61905;SDS011;47863;55.766;37.672;2023-07-09T07:21:03;3.67;;;2.05;;
61905;SDS011;47863;55.766;37.672;2023-07-09T07:23:29;3.30;;;2.13;;
61905;SDS011;47863;55.766;37.672;2023-07-09T07:25:55;14.93;;;11.93;;
61905;SDS011;47863;55.766;37.672;2023-07-09T07:28:21;8.35;;;7.03;;
61905;SDS011;47863;55.766;37.672;2023-07-09T07:30:47;6.20;;;4.22;;
61905;SDS011;47863;55.766;37.672;2023-07-09T07:35:48;5.72;;;3.30;;
61905;SDS011;47863;55.766;37.672;2023-07-09T07:38:14;6.65;;;3.45;;
61905;SDS011;47863;55.766;37.672;2023-07-09T07:40:43;5.75;;;3.00;;
61905;SDS011;47863;55.766;37.672;2023-07-09T07:43:10;4.97;;;2.63;;
61905;SDS011;47863;55.766;37.672;2023-07-09T07:45:35;3.70;;;2.30;;
61905;SDS011;47863;55.766;37.672;2023-07-09T07:48:05;3.35;;;2.10;;
61905;SDS011;47863;55.766;37.672;2023-07-09T07:50:31;4.88;;;3.15;;
61905;SDS011;47863;55.766;37.672;2023-07-09T07:52:56;5.78;;;2.42;;
61905;SDS011;47863;55.766;37.672;2023-07-09T07:55:22;2.90;;;1.98;;
61905;SDS011;47863;55.766;37.672;2023-07-09T07:57:48;3.50;;;2.30;;
61905;SDS011;47863;55.766;37.672;2023-07-09T08:00:14;3.42;;;1.98;;
61905;SDS011;47863;55.766;37.672;2023-07-09T08:02:40;3.20;;;2.13;;
61905;SDS011;47863;55.766;37.672;2023-07-09T08:05:06;3.50;;;1.90;;
61905;SDS011;47863;55.766;37.672;2023-07-09T08:07:32;3.47;;;1.98;;
61905;SDS011;47863;55.766;37.672;2023-07-09T08:09:58;2.63;;;1.77;;
61905;SDS011;47863;55.766;37.672;2023-07-09T08:12:24;4.57;;;2.10;;
61905;SDS011;47863;55.766;37.672;2023-07-09T08:14:49;3.22;;;2.13;;
61905;SDS011;47863;55.766;37.672;2023-07-09T08:17:15;4.03;;;2.00;;
61905;SDS011;47863;55.766;37.672;2023-07-09T08:19:44;2.95;;;1.98;;
61905;SDS011;47863;55.766;37.672;2023-07-09T08:22:10;3.08;;;1.90;;
61905;SDS011;47863;55.766;37.672;2023-07-09T08:24:35;3.03;;;2.13;;
61905;SDS011;47863;55.766;37.672;2023-07-09T08:27:01;4.25;;;2.20;;
61905;SDS011;47863;55.766;37.672;2023-07-09T08:29:28;3.00;;;1.83;;
61905;SDS011;47863;55.766;37.672;2023-07-09T08:31:54;4.95;;;2.00;;
61905;SDS011;47863;55.766;37.672;2023-07-09T08:34:19;3.05;;;2.10;;
61905;SDS011;47863;55.766;37.672;2023-07-09T08:36:45;2.38;;;1.73;;
61905;SDS011;47863;55.766;37.672;2023-07-09T08:39:10;3.38;;;2.03;;
61905;SDS011;47863;55.766;37.672;2023-07-09T08:41:45;5.35;;;2.15;;
61905;SDS011;47863;55.766;37.672;2023-07-09T08:49:41;2.58;;;1.90;;
61905;SDS011;47863;55.766;37.672;2023-07-09T08:54:56;2.35;;;1.70;;
61905;SDS011;47863;55.766;37.672;2023-07-09T08:57:30;2.85;;;1.83;;
61905;SDS011;47863;55.766;37.672;2023-07-09T09:00:02;2.75;;;1.77;;
61905;SDS011;47863;55.766;37.672;2023-07-09T09:02:36;2.63;;;2.10;;
61905;SDS011;47863;55.766;37.672;2023-07-09T09:05:09;2.72;;;1.90;;
61905;SDS011;47863;55.766;37.672;2023-07-09T09:07:40;2.85;;;2.10;;
61905;SDS011;47863;55.766;37.672;2023-07-09T09:10:17;2.47;;;1.88;;
61905;SDS011;47863;55.766;37.672;2023-07-09T09:15:31;2.83;;;2.08;;
61905;SDS011;47863;55.766;37.672;2023-07-09T09:17:58;2.78;;;1.90;;
61905;SDS011;47863;55.766;37.672;2023-07-09T09:20:39;3.17;;;2.00;;
61905;SDS011;47863;55.766;37.672;2023-07-09T09:25:32;3.13;;;2.10;;
61905;SDS011;47863;55.766;37.672;2023-07-09T09:28:01;4.55;;;2.45;;
61905;SDS011;47863;55.766;37.672;2023-07-09T09:30:27;5.90;;;2.08;;
61905;SDS011;47863;55.766;37.672;2023-07-09T09:33:16;2.78;;;1.77;;
61905;SDS011;47863;55.766;37.672;2023-07-09T09:38:10;3.58;;;1.88;;
61905;SDS011;47863;55.766;37.672;2023-07-09T09:40:47;3.05;;;1.80;;
61905;SDS011;47863;55.766;37.672;2023-07-09T09:43:14;2.90;;;1.80;;
61905;SDS011;47863;55.766;37.672;2023-07-09T09:45:47;3.60;;;2.00;;
61905;SDS011;47863;55.766;37.672;2023-07-09T09:48:18;3.47;;;1.80;;
61905;SDS011;47863;55.766;37.672;2023-07-09T09:50:47;4.47;;;1.70;;
61905;SDS011;47863;55.766;37.672;2023-07-09T09:53:23;2.50;;;1.70;;
61905;SDS011;47863;55.766;37.672;2023-07-09T09:55:53;3.05;;;1.77;;
61905;SDS011;47863;55.766;37.672;2023-07-09T09:58:20;3.80;;;1.75;;
61905;SDS011;47863;55.766;37.672;2023-07-09T10:00:52;3.65;;;1.90;;
61905;SDS011;47863;55.766;37.672;2023-07-09T10:03:20;2.90;;;1.67;;
61905;SDS011;47863;55.766;37.672;2023-07-09T10:05:56;3.80;;;2.00;;
61905;SDS011;47863;55.766;37.672;2023-07-09T10:08:32;2.75;;;1.98;;
61905;SDS011;47863;55.766;37.672;2023-07-09T10:11:19;3.35;;;2.00;;
61905;SDS011;47863;55.766;37.672;2023-07-09T10:13:55;3.55;;;2.30;;
61905;SDS011;47863;55.766;37.672;2023-07-09T10:16:29;3.67;;;1.73;;
61905;SDS011;47863;55.766;37.672;2023-07-09T10:30:30;2.92;;;1.75;;
61905;SDS011;47863;55.766;37.672;2023-07-09T10:33:11;3.35;;;2.25;;
61905;SDS011;47863;55.766;37.672;2023-07-09T10:35:58;2.53;;;1.85;;
61905;SDS011;47863;55.766;37.672;2023-07-09T10:38:42;3.35;;;2.08;;
61905;SDS011;47863;55.766;37.672;2023-07-09T10:41:09;4.20;;;1.95;;
61905;SDS011;47863;55.766;37.672;2023-07-09T10:46:39;2.90;;;1.73;;
61905;SDS011;47863;55.766;37.672;2023-07-09T10:51:39;3.40;;;1.77;;
61905;SDS011;47863;55.766;37.672;2023-07-09T10:57:25;2.70;;;2.10;;
61905;SDS011;47863;55.766;37.672;2023-07-09T10:59:55;3.00;;;1.80;;
61905;SDS011;47863;55.766;37.672;2023-07-09T11:02:35;3.65;;;2.00;;
61905;SDS011;47863;55.766;37.672;2023-07-09T11:05:04;3.67;;;1.88;;
61905;SDS011;47863;55.766;37.672;2023-07-09T11:07:45;3.08;;;1.77;;
61905;SDS011;47863;55.766;37.672;2023-07-09T11:10:25;2.47;;;1.80;;
61905;SDS011;47863;55.766;37.672;2023-07-09T11:13:03;3.95;;;1.88;;
61905;SDS011;47863;55.766;37.672;2023-07-09T11:15:39;3.58;;;2.60;;
61905;SDS011;47863;55.766;37.672;2023-07-09T11:18:07;4.05;;;2.35;;
61905;SDS011;47863;55.766;37.672;2023-07-09T11:20:45;3.60;;;1.90;;
61905;SDS011;47863;55.766;37.672;2023-07-09T11:23:21;2.72;;;1.75;;
61905;SDS011;47863;55.766;37.672;2023-07-09T11:26:02;3.60;;;2.00;;
61905;SDS011;47863;55.766;37.672;2023-07-09T11:28:38;3.05;;;1.73;;
61905;SDS011;47863;55.766;37.672;2023-07-09T11:31:06;2.45;;;1.50;;
61905;SDS011;47863;55.766;37.672;2023-07-09T11:33:33;3.92;;;1.77;;
61905;SDS011;47863;55.766;37.672;2023-07-09T11:38:53;3.67;;;1.90;;
61905;SDS011;47863;55.766;37.672;2023-07-09T11:41:39;3.05;;;2.03;;
61905;SDS011;47863;55.766;37.672;2023-07-09T11:49:32;3.08;;;1.90;;
61905;SDS011;47863;55.766;37.672;2023-07-09T11:52:08;2.47;;;1.60;;
61905;SDS011;47863;55.766;37.672;2023-07-09T11:54:36;2.83;;;1.73;;
61905;SDS011;47863;55.766;37.672;2023-07-09T11:57:03;3.50;;;1.83;;
61905;SDS011;47863;55.766;37.672;2023-07-09T11:59:42;3.30;;;1.67;;
61905;SDS011;47863;55.766;37.672;2023-07-09T12:02:18;7.63;;;1.90;;
61905;SDS011;47863;55.766;37.672;2023-07-09T12:04:46;2.83;;;1.80;;
61905;SDS011;47863;55.766;37.672;2023-07-09T12:07:15;2.92;;;1.67;;
61905;SDS011;47863;55.766;37.672;2023-07-09T12:09:45;3.88;;;1.95;;
61905;SDS011;47863;55.766;37.672;2023-07-09T12:12:20;3.08;;;1.95;;
61905;SDS011;47863;55.766;37.672;2023-07-09T12:14:49;3.70;;;1.70;;
61905;SDS011;47863;55.766;37.672;2023-07-09T12:17:15;3.17;;;1.83;;
61905;SDS011;47863;55.766;37.672;2023-07-09T12:19:41;2.45;;;1.48;;
61905;SDS011;47863;55.766;37.672;2023-07-09T12:22:13;3.72;;;1.60;;
61905;SDS011;47863;55.766;37.672;2023-07-09T12:24:44;3.25;;;1.80;;
61905;SDS011;47863;55.766;37.672;2023-07-09T12:27:19;3.85;;;2.35;;
61905;SDS011;47863;55.766;37.672;2023-07-09T12:29:53;3.67;;;2.00;;
61905;SDS011;47863;55.766;37.672;2023-07-09T12:32:21;3.92;;;1.80;;
61905;SDS011;47863;55.766;37.672;2023-07-09T12:34:52;5.15;;;1.88;;
61905;SDS011;47863;55.766;37.672;2023-07-09T12:37:20;3.00;;;1.90;;
61905;SDS011;47863;55.766;37.672;2023-07-09T12:39:49;2.55;;;1.70;;
61905;SDS011;47863;55.766;37.672;2023-07-09T12:42:24;3.28;;;1.83;;
61905;SDS011;47863;55.766;37.672;2023-07-09T12:44:58;3.17;;;1.77;;
61905;SDS011;47863;55.766;37.672;2023-07-09T12:47:24;3.30;;;1.90;;
61905;SDS011;47863;55.766;37.672;2023-07-09T12:49:50;6.10;;;1.90;;
61905;SDS011;47863;55.766;37.672;2023-07-09T12:52:18;3.17;;;1.90;;
61905;SDS011;47863;55.766;37.672;2023-07-09T12:54:56;3.40;;;1.92;;
61905;SDS011;47863;55.766;37.672;2023-07-09T12:57:29;3.35;;;1.83;;
61905;SDS011;47863;55.766;37.672;2023-07-09T12:59:56;3.00;;;2.00;;
61905;SDS011;47863;55.766;37.672;2023-07-09T13:04:50;3.78;;;2.10;;
61905;SDS011;47863;55.766;37.672;2023-07-09T13:09:52;3.67;;;2.03;;
61905;SDS011;47863;55.766;37.672;2023-07-09T13:12:29;3.65;;;1.88;;
61905;SDS011;47863;55.766;37.672;2023-07-09T13:14:57;4.07;;;2.13;;
61905;SDS011;47863;55.766;37.672;2023-07-09T13:17:22;4.05;;;2.33;;
61905;SDS011;47863;55.766;37.672;2023-07-09T13:19:48;4.32;;;2.17;;
61905;SDS011;47863;55.766;37.672;2023-07-09T13:22:16;4.13;;;2.08;;
61905;SDS011;47863;55.766;37.672;2023-07-09T13:24:44;3.33;;;2.03;;
61905;SDS011;47863;55.766;37.672;2023-07-09T13:27:14;5.22;;;2.30;;
61905;SDS011;47863;55.766;37.672;2023-07-09T13:29:41;3.85;;;2.00;;
61905;SDS011;47863;55.766;37.672;2023-07-09T13:32:11;4.72;;;2.55;;
61905;SDS011;47863;55.766;37.672;2023-07-09T13:34:39;3.50;;;2.20;;
61905;SDS011;47863;55.766;37.672;2023-07-09T13:37:08;3.20;;;2.00;;
61905;SDS011;47863;55.766;37.672;2023-07-09T13:39:38;4.10;;;2.13;;
61905;SDS011;47863;55.766;37.672;2023-07-09T13:42:08;2.95;;;1.67;;
61905;SDS011;47863;55.766;37.672;2023-07-09T13:44:38;3.67;;;2.00;;
61905;SDS011;47863;55.766;37.672;2023-07-09T13:47:08;3.28;;;1.52;;
61905;SDS011;47863;55.766;37.672;2023-07-09T13:49:37;3.08;;;1.98;;
61905;SDS011;47863;55.766;37.672;2023-07-09T13:52:03;6.82;;;2.17;;
61905;SDS011;47863;55.766;37.672;2023-07-09T13:54:31;3.67;;;1.90;;
61905;SDS011;47863;55.766;37.672;2023-07-09T13:57:02;4.28;;;1.77;;
61905;SDS011;47863;55.766;37.672;2023-07-09T13:59:29;4.03;;;1.85;;
61905;SDS011;47863;55.766;37.672;2023-07-09T14:01:55;3.00;;;1.63;;
61905;SDS011;47863;55.766;37.672;2023-07-09T14:04:23;2.45;;;1.60;;
61905;SDS011;47863;55.766;37.672;2023-07-09T14:06:50;4.05;;;1.98;;
61905;SDS011;47863;55.766;37.672;2023-07-09T14:09:16;3.47;;;1.67;;
61905;SDS011;47863;55.766;37.672;2023-07-09T14:11:47;2.78;;;1.92;;
61905;SDS011;47863;55.766;37.672;2023-07-09T14:14:18;2.75;;;1.77;;
61905;SDS011;47863;55.766;37.672;2023-07-09T14:16:48;5.65;;;1.95;;
61905;SDS011;47863;55.766;37.672;2023-07-09T14:19:16;3.10;;;1.83;;
61905;SDS011;47863;55.766;37.672;2023-07-09T14:21:47;4.13;;;2.00;;
61905;SDS011;47863;55.766;37.672;2023-07-09T14:26:48;4.53;;;1.90;;
61905;SDS011;47863;55.766;37.672;2023-07-09T14:29:14;2.60;;;1.67;;
61905;SDS011;47863;55.766;37.672;2023-07-09T14:31:41;4.00;;;1.83;;
61905;SDS011;47863;55.766;37.672;2023-07-09T14:34:16;3.10;;;1.70;;
61905;SDS011;47863;55.766;37.672;2023-07-09T14:36:53;3.35;;;1.80;;
61905;SDS011;47863;55.766;37.672;2023-07-09T14:39:21;2.60;;;1.70;;
61905;SDS011;47863;55.766;37.672;2023-07-09T14:41:47;2.88;;;1.80;;
61905;SDS011;47863;55.766;37.672;2023-07-09T14:46:56;3.25;;;2.00;;
61905;SDS011;47863;55.766;37.672;2023-07-09T14:49:23;4.13;;;2.10;;
61905;SDS011;47863;55.766;37.672;2023-07-09T14:51:50;3.63;;;1.70;;
61905;SDS011;47863;55.766;37.672;2023-07-09T14:54:18;5.32;;;1.90;;
61905;SDS011;47863;55.766;37.672;2023-07-09T14:56:46;2.90;;;1.60;;
61905;SDS011;47863;55.766;37.672;2023-07-09T14:59:13;2.38;;;1.52;;
61905;SDS011;47863;55.766;37.672;2023-07-09T15:01:39;3.38;;;1.88;;
61905;SDS011;47863;55.766;37.672;2023-07-09T15:06:47;3.88;;;1.58;;
61905;SDS011;47863;55.766;37.672;2023-07-09T15:09:16;2.92;;;1.83;;
61905;SDS011;47863;55.766;37.672;2023-07-09T15:11:49;4.00;;;1.60;;
61905;SDS011;47863;55.766;37.672;2023-07-09T15:14:19;3.13;;;1.90;;
61905;SDS011;47863;55.766;37.672;2023-07-09T15:16:46;2.97;;;1.80;;
61905;SDS011;47863;55.766;37.672;2023-07-09T15:19:13;4.20;;;1.95;;
61905;SDS011;47863;55.766;37.672;2023-07-09T15:21:40;3.30;;;1.60;;
61905;SDS011;47863;55.766;37.672;2023-07-09T15:24:10;3.20;;;1.65;;
61905;SDS011;47863;55.766;37.672;2023-07-09T15:26:39;3.30;;;2.10;;
61905;SDS011;47863;55.766;37.672;2023-07-09T15:29:09;3.15;;;1.95;;
61905;SDS011;47863;55.766;37.672;2023-07-09T15:31:39;4.10;;;2.00;;
61905;SDS011;47863;55.766;37.672;2023-07-09T15:34:04;3.50;;;1.88;;
61905;SDS011;47863;55.766;37.672;2023-07-09T15:36:30;3.53;;;2.00;;
61905;SDS011;47863;55.766;37.672;2023-07-09T15:38:56;4.35;;;1.80;;
61905;SDS011;47863;55.766;37.672;2023-07-09T15:41:21;3.45;;;1.85;;
61905;SDS011;47863;55.766;37.672;2023-07-09T15:43:47;2.95;;;1.80;;
61905;SDS011;47863;55.766;37.672;2023-07-09T15:46:15;4.03;;;1.80;;
61905;SDS011;47863;55.766;37.672;2023-07-09T15:48:43;3.58;;;1.90;;
61905;SDS011;47863;55.766;37.672;2023-07-09T15:51:09;3.15;;;1.80;;
61905;SDS011;47863;55.766;37.672;2023-07-09T15:53:35;4.00;;;1.90;;